KCSV

Crossville Memorial-Whitson Field Airport

Crossville, Tennessee, USA
KCSV 201720Z 2018/2118 07008KT P6SM FEW300
Issued Valid From Valid To
Apr-20 @ 17:20 UTC
(an hour ago)
Apr-20 @ 18:00 UTC
(34 minutes ago)
Apr-21 @ 18:00 UTC
(in 23 hours)
Apr-20 @ 18:00 to Apr-21 @ 18:00
KCSV 201720Z 2018/2118 07008KT P6SM FEW300
Wind Visibility Clouds
70° at 8 knots Greater than 6 miles
  • Few at 30,000' AGL
KCSV 201720Z 2018/2118 07008KT P6SM FEW300
Issued Apr-20 @ 17:20 UTC
(an hour ago)
Valid From Apr-20 @ 18:00 UTC
(34 minutes ago)
Valid To Apr-21 @ 18:00 UTC
(in 23 hours)
Apr-20 @ 18:00 - Apr-21 @ 18:00
Wind Visibility
70° at 8 knots Greater than 6 miles
Clouds
  • Few at 30,000' AGL